sensor_id;sensor_type;location;lat;lon;timestamp;pressure;altitude;pressure_sealevel;temperature;humidity
12213;BME280;6169;44.158;22.788;2022-10-26T00:02:59;101473.75;;;17.81;53.80
12213;BME280;6169;44.158;22.788;2022-10-26T00:08:02;101475.09;;;17.79;53.84
12213;BME280;6169;44.158;22.788;2022-10-26T00:13:09;101474.47;;;17.44;54.13
12213;BME280;6169;44.158;22.788;2022-10-26T00:18:13;101483.50;;;17.94;53.95
12213;BME280;6169;44.158;22.788;2022-10-26T00:23:15;101488.75;;;18.01;53.16
12213;BME280;6169;44.158;22.788;2022-10-26T00:28:19;101491.34;;;17.80;53.63
12213;BME280;6169;44.158;22.788;2022-10-26T00:33:21;101501.22;;;17.81;53.74
12213;BME280;6169;44.158;22.788;2022-10-26T00:38:24;101491.69;;;17.62;53.66
12213;BME280;6169;44.158;22.788;2022-10-26T00:43:39;101337.88;;;16.31;54.88
12213;BME280;6169;44.158;22.788;2022-10-26T00:48:45;101495.22;;;17.13;55.15
12213;BME280;6169;44.158;22.788;2022-10-26T00:53:50;101484.16;;;16.86;56.50
12213;BME280;6169;44.158;22.788;2022-10-26T00:58:55;101485.38;;;17.17;55.63
12213;BME280;6169;44.158;22.788;2022-10-26T01:03:59;101480.53;;;17.02;56.11
12213;BME280;6169;44.158;22.788;2022-10-26T01:09:03;101474.91;;;16.70;57.25
12213;BME280;6169;44.158;22.788;2022-10-26T01:14:08;101472.28;;;16.25;59.18
12213;BME280;6169;44.158;22.788;2022-10-26T01:25:01;101471.78;;;16.11;59.51
12213;BME280;6169;44.158;22.788;2022-10-26T01:30:23;101468.84;;;16.01;59.80
12213;BME280;6169;44.158;22.788;2022-10-26T01:35:31;101471.00;;;15.99;60.00
12213;BME280;6169;44.158;22.788;2022-10-26T01:40:36;101468.59;;;15.85;61.41
12213;BME280;6169;44.158;22.788;2022-10-26T01:45:44;101470.50;;;16.02;60.93
12213;BME280;6169;44.158;22.788;2022-10-26T01:50:51;101466.22;;;16.23;60.48
12213;BME280;6169;44.158;22.788;2022-10-26T01:55:55;101459.13;;;15.93;62.24
12213;BME280;6169;44.158;22.788;2022-10-26T02:01:07;101477.41;;;16.21;62.79
12213;BME280;6169;44.158;22.788;2022-10-26T02:06:17;101474.91;;;16.36;61.27
12213;BME280;6169;44.158;22.788;2022-10-26T02:11:31;101475.75;;;16.37;61.56
12213;BME280;6169;44.158;22.788;2022-10-26T02:16:43;101466.63;;;16.14;62.16
12213;BME280;6169;44.158;22.788;2022-10-26T02:21:55;101467.28;;;16.38;61.76
12213;BME280;6169;44.158;22.788;2022-10-26T02:27:02;101464.63;;;16.27;62.13
12213;BME280;6169;44.158;22.788;2022-10-26T02:32:08;101470.09;;;15.93;63.88
12213;BME280;6169;44.158;22.788;2022-10-26T02:37:13;101467.34;;;15.93;64.07
12213;BME280;6169;44.158;22.788;2022-10-26T02:42:17;101466.09;;;15.84;64.59
12213;BME280;6169;44.158;22.788;2022-10-26T02:47:21;101468.19;;;15.36;67.01
12213;BME280;6169;44.158;22.788;2022-10-26T02:52:32;101469.97;;;15.42;66.38
12213;BME280;6169;44.158;22.788;2022-10-26T02:57:40;101483.25;;;15.79;65.08
12213;BME280;6169;44.158;22.788;2022-10-26T03:02:51;101484.78;;;15.87;64.60
12213;BME280;6169;44.158;22.788;2022-10-26T03:07:55;101487.91;;;15.50;65.65
12213;BME280;6169;44.158;22.788;2022-10-26T03:12:57;101357.59;;;14.87;65.17
12213;BME280;6169;44.158;22.788;2022-10-26T03:18:01;101494.66;;;15.88;65.33
12213;BME280;6169;44.158;22.788;2022-10-26T03:23:04;101484.44;;;15.83;66.41
12213;BME280;6169;44.158;22.788;2022-10-26T03:28:06;101491.94;;;16.05;65.04
12213;BME280;6169;44.158;22.788;2022-10-26T03:33:10;101497.47;;;15.93;65.03
12213;BME280;6169;44.158;22.788;2022-10-26T03:38:12;101499.66;;;16.25;63.59
12213;BME280;6169;44.158;22.788;2022-10-26T03:43:15;101496.75;;;15.98;64.02
12213;BME280;6169;44.158;22.788;2022-10-26T03:48:19;101504.72;;;15.70;64.49
12213;BME280;6169;44.158;22.788;2022-10-26T03:53:21;101494.97;;;15.75;64.38
12213;BME280;6169;44.158;22.788;2022-10-26T03:58:23;101506.59;;;15.41;66.36
12213;BME280;6169;44.158;22.788;2022-10-26T04:03:27;101502.16;;;15.12;68.17
12213;BME280;6169;44.158;22.788;2022-10-26T04:08:30;101495.94;;;15.28;67.76
12213;BME280;6169;44.158;22.788;2022-10-26T04:13:32;101495.78;;;15.75;66.70
12213;BME280;6169;44.158;22.788;2022-10-26T04:18:36;101494.88;;;15.58;69.80
12213;BME280;6169;44.158;22.788;2022-10-26T04:23:38;101502.78;;;15.83;70.13
12213;BME280;6169;44.158;22.788;2022-10-26T04:28:41;101500.44;;;15.75;69.03
12213;BME280;6169;44.158;22.788;2022-10-26T04:33:44;101513.53;;;15.32;70.52
12213;BME280;6169;44.158;22.788;2022-10-26T04:38:47;101507.69;;;15.40;70.02
12213;BME280;6169;44.158;22.788;2022-10-26T04:43:50;101507.97;;;15.56;68.72
12213;BME280;6169;44.158;22.788;2022-10-26T04:48:54;101513.44;;;15.56;68.18
12213;BME280;6169;44.158;22.788;2022-10-26T04:53:56;101511.66;;;16.07;65.91
12213;BME280;6169;44.158;22.788;2022-10-26T04:58:59;101528.28;;;16.17;65.67
12213;BME280;6169;44.158;22.788;2022-10-26T05:04:03;101532.13;;;15.87;65.92
12213;BME280;6169;44.158;22.788;2022-10-26T05:09:05;101518.84;;;15.79;65.76
12213;BME280;6169;44.158;22.788;2022-10-26T05:14:07;101533.31;;;15.63;67.11
12213;BME280;6169;44.158;22.788;2022-10-26T05:19:14;101534.00;;;15.70;66.27
12213;BME280;6169;44.158;22.788;2022-10-26T05:24:16;101541.38;;;15.69;65.92
12213;BME280;6169;44.158;22.788;2022-10-26T05:29:18;101545.25;;;15.85;65.19
12213;BME280;6169;44.158;22.788;2022-10-26T05:34:22;101544.59;;;15.95;65.14
12213;BME280;6169;44.158;22.788;2022-10-26T05:39:25;101551.59;;;16.03;65.20
12213;BME280;6169;44.158;22.788;2022-10-26T05:44:27;101428.03;;;15.54;64.72
12213;BME280;6169;44.158;22.788;2022-10-26T05:49:31;101559.66;;;16.26;64.94
12213;BME280;6169;44.158;22.788;2022-10-26T05:54:33;101488.22;;;16.11;64.10
12213;BME280;6169;44.158;22.788;2022-10-26T05:59:36;101571.88;;;16.52;64.50
12213;BME280;6169;44.158;22.788;2022-10-26T06:04:42;101516.19;;;16.64;62.98
12213;BME280;6169;44.158;22.788;2022-10-26T06:09:48;101589.44;;;17.24;62.36
12213;BME280;6169;44.158;22.788;2022-10-26T06:14:51;101590.13;;;17.14;62.89
12213;BME280;6169;44.158;22.788;2022-10-26T06:20:17;101611.56;;;17.78;60.63
12213;BME280;6169;44.158;22.788;2022-10-26T06:25:27;101611.31;;;18.29;58.00
12213;BME280;6169;44.158;22.788;2022-10-26T06:30:33;101617.09;;;18.27;57.52
12213;BME280;6169;44.158;22.788;2022-10-26T06:35:43;101623.63;;;17.99;58.96
12213;BME280;6169;44.158;22.788;2022-10-26T06:40:50;101629.81;;;18.98;55.49
12213;BME280;6169;44.158;22.788;2022-10-26T06:45:58;101638.56;;;18.95;55.28
12213;BME280;6169;44.158;22.788;2022-10-26T06:51:03;101636.53;;;19.17;54.48
12213;BME280;6169;44.158;22.788;2022-10-26T06:56:06;101635.38;;;19.61;53.44
12213;BME280;6169;44.158;22.788;2022-10-26T07:01:10;101647.91;;;19.36;53.38
12213;BME280;6169;44.158;22.788;2022-10-26T07:06:14;101643.13;;;19.64;52.47
12213;BME280;6169;44.158;22.788;2022-10-26T07:11:16;101647.06;;;19.78;51.34
12213;BME280;6169;44.158;22.788;2022-10-26T07:16:19;101659.78;;;19.89;52.08
12213;BME280;6169;44.158;22.788;2022-10-26T07:21:24;101659.56;;;20.11;50.67
12213;BME280;6169;44.158;22.788;2022-10-26T07:26:26;101648.56;;;20.16;51.11
12213;BME280;6169;44.158;22.788;2022-10-26T07:31:29;101656.53;;;20.13;50.95
12213;BME280;6169;44.158;22.788;2022-10-26T07:36:33;101646.34;;;20.24;50.27
12213;BME280;6169;44.158;22.788;2022-10-26T07:41:36;101647.97;;;20.04;51.45
12213;BME280;6169;44.158;22.788;2022-10-26T07:46:38;101650.19;;;20.02;51.08
12213;BME280;6169;44.158;22.788;2022-10-26T07:51:42;101656.22;;;20.04;51.02
12213;BME280;6169;44.158;22.788;2022-10-26T07:56:48;101659.94;;;20.66;49.27
12213;BME280;6169;44.158;22.788;2022-10-26T08:01:50;101649.31;;;19.91;50.31
12213;BME280;6169;44.158;22.788;2022-10-26T08:06:54;101643.34;;;20.35;49.17
12213;BME280;6169;44.158;22.788;2022-10-26T08:11:57;101641.75;;;20.70;47.24
12213;BME280;6169;44.158;22.788;2022-10-26T08:16:59;101642.84;;;20.74;46.66
12213;BME280;6169;44.158;22.788;2022-10-26T08:22:03;101649.97;;;20.34;45.54
12213;BME280;6169;44.158;22.788;2022-10-26T08:27:06;101645.06;;;20.98;44.26
12213;BME280;6169;44.158;22.788;2022-10-26T08:32:08;101643.41;;;20.71;45.09
12213;BME280;6169;44.158;22.788;2022-10-26T08:37:12;101635.97;;;20.92;44.01
12213;BME280;6169;44.158;22.788;2022-10-26T08:42:18;101633.19;;;21.18;43.30
12213;BME280;6169;44.158;22.788;2022-10-26T08:47:27;101625.41;;;21.40;41.87
12213;BME280;6169;44.158;22.788;2022-10-26T08:52:37;101640.72;;;21.77;40.81
12213;BME280;6169;44.158;22.788;2022-10-26T08:57:40;101645.13;;;21.88;40.62
12213;BME280;6169;44.158;22.788;2022-10-26T09:02:43;101643.72;;;21.81;40.07
12213;BME280;6169;44.158;22.788;2022-10-26T09:07:52;101661.47;;;22.29;39.08
12213;BME280;6169;44.158;22.788;2022-10-26T09:13:03;101646.19;;;21.92;39.43
12213;BME280;6169;44.158;22.788;2022-10-26T09:18:15;101647.88;;;21.88;39.75
12213;BME280;6169;44.158;22.788;2022-10-26T09:23:50;101661.56;;;22.58;38.12
12213;BME280;6169;44.158;22.788;2022-10-26T09:28:56;101662.09;;;22.95;36.98
12213;BME280;6169;44.158;22.788;2022-10-26T09:34:01;101662.22;;;22.40;38.21
12213;BME280;6169;44.158;22.788;2022-10-26T09:39:14;101637.19;;;22.60;37.23
12213;BME280;6169;44.158;22.788;2022-10-26T09:44:24;101656.94;;;22.83;37.19
12213;BME280;6169;44.158;22.788;2022-10-26T09:49:32;101649.44;;;23.66;35.11
12213;BME280;6169;44.158;22.788;2022-10-26T09:54:38;101652.00;;;23.62;35.45
12213;BME280;6169;44.158;22.788;2022-10-26T09:59:41;101653.31;;;23.65;34.81
12213;BME280;6169;44.158;22.788;2022-10-26T10:04:46;101642.78;;;23.19;33.97
12213;BME280;6169;44.158;22.788;2022-10-26T10:10:06;101644.50;;;23.63;34.06
12213;BME280;6169;44.158;22.788;2022-10-26T10:15:16;101644.47;;;23.15;33.77
12213;BME280;6169;44.158;22.788;2022-10-26T10:20:21;101626.38;;;23.70;32.96
12213;BME280;6169;44.158;22.788;2022-10-26T10:25:35;101634.97;;;23.93;31.91
12213;BME280;6169;44.158;22.788;2022-10-26T10:30:51;101630.22;;;23.75;33.08
12213;BME280;6169;44.158;22.788;2022-10-26T10:35:57;101628.59;;;23.92;32.07
12213;BME280;6169;44.158;22.788;2022-10-26T10:41:01;101618.31;;;23.74;32.81
12213;BME280;6169;44.158;22.788;2022-10-26T10:46:04;101613.31;;;24.14;31.10
12213;BME280;6169;44.158;22.788;2022-10-26T10:51:08;101610.25;;;24.15;29.92
12213;BME280;6169;44.158;22.788;2022-10-26T10:56:32;101611.50;;;24.23;27.91
12213;BME280;6169;44.158;22.788;2022-10-26T11:01:38;101599.75;;;24.50;27.86
12213;BME280;6169;44.158;22.788;2022-10-26T11:06:42;101600.44;;;24.75;26.90
12213;BME280;6169;44.158;22.788;2022-10-26T11:11:50;101594.94;;;25.58;26.62
12213;BME280;6169;44.158;22.788;2022-10-26T11:16:57;101593.41;;;25.52;27.92
12213;BME280;6169;44.158;22.788;2022-10-26T11:22:05;101590.41;;;25.48;27.50
12213;BME280;6169;44.158;22.788;2022-10-26T11:27:15;101595.28;;;25.29;27.58
12213;BME280;6169;44.158;22.788;2022-10-26T11:32:21;101596.81;;;25.35;27.19
12213;BME280;6169;44.158;22.788;2022-10-26T11:37:30;101596.34;;;25.97;26.70
12213;BME280;6169;44.158;22.788;2022-10-26T11:42:40;101591.13;;;25.67;26.40
12213;BME280;6169;44.158;22.788;2022-10-26T11:47:43;101581.34;;;25.42;26.91
12213;BME280;6169;44.158;22.788;2022-10-26T11:52:52;101595.63;;;26.50;26.19
12213;BME280;6169;44.158;22.788;2022-10-26T11:57:59;101588.81;;;26.33;25.70
12213;BME280;6169;44.158;22.788;2022-10-26T12:03:07;101595.25;;;26.06;26.05
12213;BME280;6169;44.158;22.788;2022-10-26T12:08:14;101584.03;;;26.11;25.54
12213;BME280;6169;44.158;22.788;2022-10-26T12:13:24;101584.28;;;26.46;25.46
12213;BME280;6169;44.158;22.788;2022-10-26T12:18:33;101584.63;;;25.86;25.69
12213;BME280;6169;44.158;22.788;2022-10-26T12:23:53;101592.50;;;26.74;25.59
12213;BME280;6169;44.158;22.788;2022-10-26T12:29:26;101586.59;;;26.44;23.46
12213;BME280;6169;44.158;22.788;2022-10-26T12:34:56;101586.09;;;26.42;24.94
12213;BME280;6169;44.158;22.788;2022-10-26T12:40:41;101587.72;;;26.43;24.75
12213;BME280;6169;44.158;22.788;2022-10-26T12:46:36;101578.34;;;26.84;23.32
12213;BME280;6169;44.158;22.788;2022-10-26T12:51:41;101577.47;;;27.06;24.25
12213;BME280;6169;44.158;22.788;2022-10-26T12:56:49;101574.94;;;27.36;22.63
12213;BME280;6169;44.158;22.788;2022-10-26T13:02:23;101574.50;;;27.11;22.72
12213;BME280;6169;44.158;22.788;2022-10-26T13:07:34;101573.16;;;27.00;23.46
12213;BME280;6169;44.158;22.788;2022-10-26T13:12:46;101584.97;;;27.05;23.79
12213;BME280;6169;44.158;22.788;2022-10-26T13:17:57;101572.09;;;27.18;23.52
12213;BME280;6169;44.158;22.788;2022-10-26T13:23:01;101570.53;;;26.95;23.51
12213;BME280;6169;44.158;22.788;2022-10-26T13:28:05;101564.47;;;27.01;23.74
12213;BME280;6169;44.158;22.788;2022-10-26T13:33:18;101565.97;;;26.76;23.48
12213;BME280;6169;44.158;22.788;2022-10-26T13:38:26;101573.16;;;26.46;23.43
12213;BME280;6169;44.158;22.788;2022-10-26T13:43:31;101572.16;;;26.96;23.90
12213;BME280;6169;44.158;22.788;2022-10-26T13:48:40;101580.22;;;26.75;23.35
12213;BME280;6169;44.158;22.788;2022-10-26T13:53:48;101576.88;;;26.19;24.02
12213;BME280;6169;44.158;22.788;2022-10-26T13:58:56;101584.81;;;26.48;23.96
12213;BME280;6169;44.158;22.788;2022-10-26T14:04:13;101578.09;;;26.27;24.13
12213;BME280;6169;44.158;22.788;2022-10-26T14:09:17;101573.75;;;26.34;24.34
12213;BME280;6169;44.158;22.788;2022-10-26T14:14:23;101576.19;;;26.13;24.00
12213;BME280;6169;44.158;22.788;2022-10-26T14:19:29;101586.00;;;25.75;24.47
12213;BME280;6169;44.158;22.788;2022-10-26T14:24:33;101583.84;;;25.71;24.54
12213;BME280;6169;44.158;22.788;2022-10-26T14:29:37;101583.22;;;25.47;24.97
12213;BME280;6169;44.158;22.788;2022-10-26T14:34:41;101592.28;;;25.25;26.08
12213;BME280;6169;44.158;22.788;2022-10-26T14:39:44;101585.84;;;24.97;28.73
12213;BME280;6169;44.158;22.788;2022-10-26T14:44:48;101581.63;;;24.86;29.33
12213;BME280;6169;44.158;22.788;2022-10-26T14:49:52;101586.03;;;24.73;29.67
12213;BME280;6169;44.158;22.788;2022-10-26T14:54:59;101591.34;;;24.36;30.67
12213;BME280;6169;44.158;22.788;2022-10-26T15:00:10;101601.97;;;24.29;30.98
12213;BME280;6169;44.158;22.788;2022-10-26T15:05:20;101602.09;;;24.24;30.94
12213;BME280;6169;44.158;22.788;2022-10-26T15:10:47;101593.44;;;24.07;31.43
12213;BME280;6169;44.158;22.788;2022-10-26T15:15:51;101598.59;;;23.57;32.29
12213;BME280;6169;44.158;22.788;2022-10-26T15:20:56;101602.22;;;23.28;32.69
12213;BME280;6169;44.158;22.788;2022-10-26T15:26:00;101617.41;;;22.77;34.03
12213;BME280;6169;44.158;22.788;2022-10-26T15:31:05;101620.13;;;22.53;33.52
12213;BME280;6169;44.158;22.788;2022-10-26T15:36:16;101633.13;;;22.08;32.15
12213;BME280;6169;44.158;22.788;2022-10-26T15:41:25;101635.34;;;22.06;33.76
12213;BME280;6169;44.158;22.788;2022-10-26T15:46:30;101642.13;;;21.64;33.33
12213;BME280;6169;44.158;22.788;2022-10-26T15:51:37;101646.03;;;21.58;34.06
12213;BME280;6169;44.158;22.788;2022-10-26T15:56:39;101644.97;;;21.54;33.86
12213;BME280;6169;44.158;22.788;2022-10-26T16:01:43;101647.44;;;21.50;34.11
12213;BME280;6169;44.158;22.788;2022-10-26T16:06:47;101658.78;;;21.49;34.27
12213;BME280;6169;44.158;22.788;2022-10-26T16:11:49;101658.81;;;21.39;34.54
12213;BME280;6169;44.158;22.788;2022-10-26T16:16:52;101665.47;;;21.12;35.66
12213;BME280;6169;44.158;22.788;2022-10-26T16:21:56;101658.84;;;20.82;36.37
12213;BME280;6169;44.158;22.788;2022-10-26T16:26:58;101672.09;;;20.80;35.04
12213;BME280;6169;44.158;22.788;2022-10-26T16:32:00;101664.66;;;20.76;35.84
12213;BME280;6169;44.158;22.788;2022-10-26T16:37:04;101669.91;;;20.62;36.16
12213;BME280;6169;44.158;22.788;2022-10-26T16:42:07;101677.88;;;20.64;35.49
12213;BME280;6169;44.158;22.788;2022-10-26T16:47:09;101688.09;;;20.63;35.54
12213;BME280;6169;44.158;22.788;2022-10-26T16:52:13;101680.38;;;20.50;35.07
12213;BME280;6169;44.158;22.788;2022-10-26T16:57:16;101689.97;;;20.42;35.77
12213;BME280;6169;44.158;22.788;2022-10-26T17:02:18;101693.03;;;20.46;35.60
12213;BME280;6169;44.158;22.788;2022-10-26T17:07:22;101696.00;;;20.34;36.04
12213;BME280;6169;44.158;22.788;2022-10-26T17:12:25;101702.53;;;20.02;35.65
12213;BME280;6169;44.158;22.788;2022-10-26T17:17:27;101704.97;;;19.99;37.29
12213;BME280;6169;44.158;22.788;2022-10-26T17:22:31;101713.44;;;19.77;37.37
12213;BME280;6169;44.158;22.788;2022-10-26T17:27:34;101725.94;;;19.94;37.24
12213;BME280;6169;44.158;22.788;2022-10-26T17:32:36;101723.16;;;19.47;38.23
12213;BME280;6169;44.158;22.788;2022-10-26T17:37:40;101739.25;;;19.65;38.26
12213;BME280;6169;44.158;22.788;2022-10-26T17:42:42;101730.78;;;19.72;37.75
12213;BME280;6169;44.158;22.788;2022-10-26T17:47:45;101741.69;;;19.57;37.99
12213;BME280;6169;44.158;22.788;2022-10-26T17:52:48;101735.81;;;19.43;38.78
12213;BME280;6169;44.158;22.788;2022-10-26T17:57:51;101750.59;;;19.32;38.77
12213;BME280;6169;44.158;22.788;2022-10-26T18:02:53;101739.81;;;19.30;39.08
12213;BME280;6169;44.158;22.788;2022-10-26T18:07:57;101744.56;;;19.35;38.82
12213;BME280;6169;44.158;22.788;2022-10-26T18:13:00;101753.69;;;19.40;39.09
12213;BME280;6169;44.158;22.788;2022-10-26T18:18:02;101762.94;;;19.29;39.26
12213;BME280;6169;44.158;22.788;2022-10-26T18:23:06;101758.94;;;19.10;39.88
12213;BME280;6169;44.158;22.788;2022-10-26T18:28:08;101769.53;;;19.28;39.86
12213;BME280;6169;44.158;22.788;2022-10-26T18:33:11;101777.41;;;19.46;39.34
12213;BME280;6169;44.158;22.788;2022-10-26T18:38:16;101778.06;;;19.64;38.95
12213;BME280;6169;44.158;22.788;2022-10-26T18:43:20;101781.06;;;19.57;39.76
12213;BME280;6169;44.158;22.788;2022-10-26T18:48:22;101787.34;;;19.53;40.43
12213;BME280;6169;44.158;22.788;2022-10-26T18:53:26;101786.44;;;19.42;40.94
12213;BME280;6169;44.158;22.788;2022-10-26T18:58:29;101796.03;;;19.39;40.90
12213;BME280;6169;44.158;22.788;2022-10-26T19:03:32;101799.81;;;19.28;41.60
12213;BME280;6169;44.158;22.788;2022-10-26T19:08:36;101814.03;;;19.15;41.93
12213;BME280;6169;44.158;22.788;2022-10-26T19:13:39;101817.38;;;18.95;42.60
12213;BME280;6169;44.158;22.788;2022-10-26T19:18:41;101829.03;;;19.02;41.78
12213;BME280;6169;44.158;22.788;2022-10-26T19:23:46;101822.56;;;18.91;42.49
12213;BME280;6169;44.158;22.788;2022-10-26T19:28:53;101840.84;;;18.80;42.91
12213;BME280;6169;44.158;22.788;2022-10-26T19:33:57;101844.47;;;18.59;43.81
12213;BME280;6169;44.158;22.788;2022-10-26T19:39:01;101848.00;;;18.54;43.78
12213;BME280;6169;44.158;22.788;2022-10-26T19:44:04;101862.19;;;18.46;44.01
12213;BME280;6169;44.158;22.788;2022-10-26T19:49:07;101864.25;;;18.17;44.73
12213;BME280;6169;44.158;22.788;2022-10-26T19:54:11;101872.25;;;18.19;45.20
12213;BME280;6169;44.158;22.788;2022-10-26T19:59:13;101872.63;;;18.44;44.19
12213;BME280;6169;44.158;22.788;2022-10-26T20:04:16;101866.41;;;18.54;44.01
12213;BME280;6169;44.158;22.788;2022-10-26T20:09:19;101886.09;;;18.46;44.36
12213;BME280;6169;44.158;22.788;2022-10-26T20:14:22;101886.69;;;18.48;44.38
12213;BME280;6169;44.158;22.788;2022-10-26T20:19:24;101884.69;;;18.43;44.75
12213;BME280;6169;44.158;22.788;2022-10-26T20:24:28;101891.25;;;18.03;45.91
12213;BME280;6169;44.158;22.788;2022-10-26T20:29:30;101901.72;;;17.56;47.15
12213;BME280;6169;44.158;22.788;2022-10-26T20:34:33;101907.97;;;17.85;47.09
12213;BME280;6169;44.158;22.788;2022-10-26T20:39:37;101915.47;;;18.06;47.68
12213;BME280;6169;44.158;22.788;2022-10-26T20:44:41;101912.53;;;18.13;48.09
12213;BME280;6169;44.158;22.788;2022-10-26T20:49:45;101917.47;;;18.11;48.54
12213;BME280;6169;44.158;22.788;2022-10-26T20:54:52;101909.66;;;18.20;48.74
12213;BME280;6169;44.158;22.788;2022-10-26T20:59:58;101919.19;;;18.17;48.80
12213;BME280;6169;44.158;22.788;2022-10-26T21:05:04;101923.78;;;18.11;49.45
12213;BME280;6169;44.158;22.788;2022-10-26T21:10:09;101925.63;;;18.06;49.23
12213;BME280;6169;44.158;22.788;2022-10-26T21:15:11;101928.31;;;18.18;48.78
12213;BME280;6169;44.158;22.788;2022-10-26T21:20:14;101935.19;;;17.69;50.00
12213;BME280;6169;44.158;22.788;2022-10-26T21:25:18;101931.53;;;17.98;49.06
12213;BME280;6169;44.158;22.788;2022-10-26T21:30:20;101930.53;;;17.70;50.22
12213;BME280;6169;44.158;22.788;2022-10-26T21:35:22;101921.34;;;17.47;50.63
12213;BME280;6169;44.158;22.788;2022-10-26T21:40:26;101934.25;;;17.64;50.02
12213;BME280;6169;44.158;22.788;2022-10-26T21:45:30;101929.00;;;17.62;50.29
12213;BME280;6169;44.158;22.788;2022-10-26T21:50:32;101870.59;;;17.04;50.34
12213;BME280;6169;44.158;22.788;2022-10-26T21:55:36;101922.66;;;17.16;51.52
12213;BME280;6169;44.158;22.788;2022-10-26T22:00:38;101923.53;;;17.05;51.81
12213;BME280;6169;44.158;22.788;2022-10-26T22:05:40;101912.84;;;16.92;51.85
12213;BME280;6169;44.158;22.788;2022-10-26T22:10:44;101924.84;;;17.31;50.41
12213;BME280;6169;44.158;22.788;2022-10-26T22:15:47;101934.47;;;17.17;51.32
12213;BME280;6169;44.158;22.788;2022-10-26T22:20:55;101941.41;;;17.08;51.20
12213;BME280;6169;44.158;22.788;2022-10-26T22:26:02;101951.16;;;16.87;52.11
12213;BME280;6169;44.158;22.788;2022-10-26T22:31:05;101800.09;;;15.84;51.86
12213;BME280;6169;44.158;22.788;2022-10-26T22:36:10;101957.69;;;16.86;51.26
12213;BME280;6169;44.158;22.788;2022-10-26T22:41:14;101951.63;;;16.72;51.18
12213;BME280;6169;44.158;22.788;2022-10-26T22:46:19;101966.44;;;16.71;51.02
12213;BME280;6169;44.158;22.788;2022-10-26T22:51:23;101955.66;;;16.93;50.51
12213;BME280;6169;44.158;22.788;2022-10-26T22:56:27;101964.22;;;16.96;50.38
12213;BME280;6169;44.158;22.788;2022-10-26T23:01:32;101964.28;;;16.85;50.61
12213;BME280;6169;44.158;22.788;2022-10-26T23:06:35;101976.09;;;16.62;51.51
12213;BME280;6169;44.158;22.788;2022-10-26T23:11:38;101977.50;;;16.52;52.09
12213;BME280;6169;44.158;22.788;2022-10-26T23:16:41;101976.22;;;16.55;51.71
12213;BME280;6169;44.158;22.788;2022-10-26T23:21:43;101984.06;;;16.28;52.79
12213;BME280;6169;44.158;22.788;2022-10-26T23:26:47;101965.84;;;16.45;51.72
12213;BME280;6169;44.158;22.788;2022-10-26T23:31:49;101952.03;;;16.17;52.64
12213;BME280;6169;44.158;22.788;2022-10-26T23:36:52;101961.44;;;16.44;51.91
12213;BME280;6169;44.158;22.788;2022-10-26T23:41:56;101967.41;;;16.65;51.43
12213;BME280;6169;44.158;22.788;2022-10-26T23:46:58;101962.50;;;16.43;52.06
12213;BME280;6169;44.158;22.788;2022-10-26T23:52:00;101909.16;;;16.10;52.74
12213;BME280;6169;44.158;22.788;2022-10-26T23:57:04;101974.31;;;16.67;51.59
